createdAt,value
2022-11-26T00:01:22.813Z,76.00
2022-11-26T00:03:49.776Z,75.56
2022-11-26T00:06:47.776Z,75.10
2022-11-26T00:09:19.315Z,73.67
2022-11-26T00:11:46.229Z,72.84
2022-11-26T00:14:16.809Z,71.03
2022-11-26T00:16:44.812Z,69.73
2022-11-26T00:19:11.844Z,70.51
2022-11-26T00:21:41.206Z,70.70
2022-11-26T00:24:27.228Z,70.70
2022-11-26T00:26:56.232Z,68.87
2022-11-26T00:29:23.222Z,69.24
2022-11-26T00:31:50.139Z,69.30
2022-11-26T00:34:17.044Z,69.92
2022-11-26T00:36:44.938Z,70.77
2022-11-26T00:39:17.073Z,69.56
2022-11-26T00:41:48.790Z,69.23
2022-11-26T00:44:25.657Z,71.15
2022-11-26T00:46:52.907Z,71.13
2022-11-26T00:49:20.928Z,71.09
2022-11-26T00:51:48.174Z,71.20
2022-11-26T00:54:17.994Z,72.24
2022-11-26T00:56:45.767Z,72.73
2022-11-26T00:59:14.926Z,73.24
2022-11-26T01:01:42.030Z,76.07
2022-11-26T01:04:09.371Z,74.83
2022-11-26T01:06:40.331Z,75.35
2022-11-26T01:09:12.883Z,76.59
2022-11-26T01:11:39.804Z,76.92
2022-11-26T01:14:07.196Z,76.93
2022-11-26T01:16:39.390Z,77.26
2022-11-26T01:19:06.367Z,77.41
2022-11-26T01:21:33.559Z,77.89
2022-11-26T01:24:00.445Z,77.26
2022-11-26T01:26:32.826Z,76.41
2022-11-26T01:28:59.732Z,76.36
2022-11-26T01:31:29.158Z,75.07
2022-11-26T01:33:57.166Z,73.86
2022-11-26T01:36:26.774Z,73.59
2022-11-26T01:39:02.932Z,73.52
2022-11-26T01:41:47.451Z,72.44
2022-11-26T01:44:24.012Z,72.76
2022-11-26T01:46:55.106Z,74.33
2022-11-26T01:49:29.382Z,74.33
2022-11-26T01:52:24.476Z,73.54
2022-11-26T01:54:53.521Z,74.50
2022-11-26T01:57:25.206Z,74.18
2022-11-26T01:59:55.169Z,72.28
2022-11-26T02:02:25.437Z,71.94
2022-11-26T02:05:07.736Z,73.26
2022-11-26T02:07:36.297Z,70.84
2022-11-26T02:10:03.986Z,69.94
2022-11-26T02:12:31.013Z,70.13
2022-11-26T02:14:57.956Z,69.98
2022-11-26T02:17:24.805Z,68.12
2022-11-26T02:20:00.420Z,67.09
2022-11-26T02:22:57.017Z,66.68
2022-11-26T02:25:23.800Z,67.00
2022-11-26T02:28:05.552Z,65.48
2022-11-26T02:30:37.992Z,65.75
2022-11-26T02:33:11.800Z,65.94
2022-11-26T02:35:38.600Z,65.92
2022-11-26T02:38:13.733Z,65.85
2022-11-26T02:40:40.611Z,65.71
2022-11-26T02:43:07.432Z,64.80
2022-11-26T02:45:41.095Z,65.21
2022-11-26T02:48:13.589Z,65.46
2022-11-26T02:50:48.097Z,65.42
2022-11-26T02:53:17.733Z,65.05
2022-11-26T02:55:49.886Z,64.37
2022-11-26T02:58:18.902Z,64.68
2022-11-26T03:00:48.498Z,63.99
2022-11-26T03:03:30.234Z,64.15
2022-11-26T03:06:02.102Z,63.67
2022-11-26T03:08:30.725Z,64.74
2022-11-26T03:10:57.916Z,64.35
2022-11-26T03:13:24.949Z,64.25
2022-11-26T03:15:52.117Z,64.95
2022-11-26T03:18:19.134Z,65.72
2022-11-26T03:20:45.985Z,66.04
2022-11-26T03:23:12.813Z,64.93
2022-11-26T03:25:39.988Z,64.19
2022-11-26T03:28:07.177Z,63.86
2022-11-26T03:30:34.051Z,63.81
2022-11-26T03:33:00.880Z,63.41
2022-11-26T03:35:27.788Z,63.06
2022-11-26T03:37:54.795Z,63.29
2022-11-26T03:40:21.720Z,64.02
2022-11-26T03:42:48.542Z,64.82
2022-11-26T03:45:15.434Z,66.19
2022-11-26T03:47:42.270Z,65.03
2022-11-26T03:50:09.573Z,63.92
2022-11-26T03:52:36.624Z,64.11
2022-11-26T03:55:03.581Z,62.36
2022-11-26T03:57:30.451Z,63.09
2022-11-26T03:59:57.376Z,64.08
2022-11-26T04:02:24.298Z,64.06
2022-11-26T04:04:51.340Z,63.83
2022-11-26T04:07:18.442Z,63.01
2022-11-26T04:09:45.343Z,62.42
2022-11-26T04:12:12.188Z,62.70
2022-11-26T04:14:39.250Z,61.79
2022-11-26T04:17:06.427Z,61.99
2022-11-26T04:19:33.265Z,63.57
2022-11-26T04:22:00.134Z,63.94
2022-11-26T04:24:27.117Z,64.93
2022-11-26T04:26:54.087Z,63.56
2022-11-26T04:29:21.052Z,61.89
2022-11-26T04:31:48.037Z,61.48
2022-11-26T04:34:14.936Z,63.13
2022-11-26T04:36:41.862Z,61.84
2022-11-26T04:39:08.727Z,62.24
2022-11-26T04:41:35.561Z,64.83
2022-11-26T04:44:02.440Z,64.91
2022-11-26T04:46:29.337Z,65.21
2022-11-26T04:48:56.240Z,65.20
2022-11-26T04:51:23.100Z,68.72
2022-11-26T04:53:51.407Z,68.97
2022-11-26T04:56:21.540Z,68.97
2022-11-26T04:58:48.468Z,67.62
2022-11-26T05:01:15.461Z,66.49
2022-11-26T05:03:42.887Z,66.79
2022-11-26T05:06:10.903Z,66.23
2022-11-26T05:08:37.833Z,65.52
2022-11-26T05:11:05.095Z,65.84
2022-11-26T05:13:32.066Z,64.24
2022-11-26T05:15:59.124Z,65.08
2022-11-26T05:18:25.981Z,67.34
2022-11-26T05:20:52.809Z,68.64
2022-11-26T05:23:19.706Z,68.31
2022-11-26T05:25:47.928Z,68.10
2022-11-26T05:28:14.925Z,68.09
2022-11-26T05:30:42.071Z,69.72
2022-11-26T05:33:08.967Z,69.25
2022-11-26T05:35:37.625Z,69.60
2022-11-26T05:38:04.587Z,69.68
2022-11-26T05:40:31.544Z,69.59
2022-11-26T05:42:58.434Z,70.61
2022-11-26T05:45:25.330Z,70.71
2022-11-26T05:47:52.259Z,71.06
2022-11-26T05:50:19.257Z,70.33
2022-11-26T05:52:46.176Z,67.53
2022-11-26T05:55:13.165Z,65.60
2022-11-26T05:57:40.113Z,64.67
2022-11-26T06:00:07.728Z,62.64
2022-11-26T06:02:39.377Z,62.27
2022-11-26T06:05:07.013Z,61.32
2022-11-26T06:07:33.993Z,60.89
2022-11-26T06:10:01.097Z,62.83
2022-11-26T06:12:28.329Z,65.77
2022-11-26T06:14:55.190Z,66.52
2022-11-26T06:17:22.186Z,66.86
2022-11-26T06:19:49.179Z,66.59
2022-11-26T06:22:16.059Z,65.78
2022-11-26T06:24:42.979Z,63.93
2022-11-26T06:27:10.438Z,62.89
2022-11-26T06:29:37.313Z,61.00
2022-11-26T06:32:04.557Z,60.73
2022-11-26T06:34:31.439Z,61.54
2022-11-26T06:36:58.297Z,62.76
2022-11-26T06:39:25.236Z,62.12
2022-11-26T06:41:52.144Z,62.40
2022-11-26T06:44:19.148Z,63.81
2022-11-26T06:46:46.107Z,64.35
2022-11-26T06:49:13.010Z,64.77
2022-11-26T06:51:40.022Z,63.55
2022-11-26T06:54:06.868Z,63.09
2022-11-26T06:56:35.794Z,62.80
2022-11-26T06:59:02.850Z,63.23
2022-11-26T07:01:30.074Z,63.73
2022-11-26T07:03:57.026Z,61.82
2022-11-26T07:06:26.674Z,61.20
2022-11-26T07:08:54.986Z,59.54
2022-11-26T07:11:22.546Z,58.86
2022-11-26T07:13:49.629Z,55.72
2022-11-26T07:16:16.880Z,54.31
2022-11-26T07:18:47.542Z,50.19
2022-11-26T07:21:14.464Z,51.29
2022-11-26T07:23:42.077Z,49.74
2022-11-26T07:26:10.810Z,47.27
2022-11-26T07:28:38.056Z,45.17
2022-11-26T07:31:16.172Z,45.98
2022-11-26T07:33:44.062Z,46.40
2022-11-26T07:36:22.254Z,43.58
2022-11-26T07:38:49.825Z,44.82
2022-11-26T07:41:20.084Z,42.99
2022-11-26T07:43:47.306Z,43.61
2022-11-26T07:46:17.288Z,42.02
2022-11-26T07:48:44.674Z,43.65
2022-11-26T07:51:23.711Z,38.45
2022-11-26T07:53:51.552Z,37.02
2022-11-26T07:56:19.482Z,31.72
2022-11-26T07:58:46.834Z,30.61
2022-11-26T08:01:19.476Z,27.66
2022-11-26T08:03:48.709Z,28.05
2022-11-26T08:06:18.356Z,27.64
2022-11-26T08:08:45.268Z,29.10
2022-11-26T08:11:18.030Z,27.11
2022-11-26T08:13:45.963Z,27.49
2022-11-26T08:16:13.881Z,25.89
2022-11-26T08:18:40.942Z,26.41
2022-11-26T08:21:08.195Z,31.46
2022-11-26T08:23:35.560Z,33.04
2022-11-26T08:26:23.796Z,28.83
2022-11-26T08:28:52.510Z,31.35
2022-11-26T08:31:19.822Z,34.01
2022-11-26T08:33:46.818Z,36.78
2022-11-26T08:36:13.821Z,38.57
2022-11-26T08:38:40.869Z,35.33
2022-11-26T08:41:11.357Z,34.03
2022-11-26T08:44:05.241Z,36.37
2022-11-26T08:46:26.240Z,39.50
2022-11-26T08:48:56.596Z,39.55
2022-11-26T08:51:24.435Z,41.94
2022-11-26T08:53:51.366Z,40.25
2022-11-26T08:56:18.288Z,41.02
2022-11-26T08:58:45.710Z,40.06
2022-11-26T09:01:14.737Z,37.67
2022-11-26T09:03:41.934Z,39.19
2022-11-26T09:06:09.924Z,40.66
2022-11-26T09:09:06.277Z,39.81
2022-11-26T09:11:36.043Z,40.86
2022-11-26T09:14:03.718Z,37.33
2022-11-26T09:16:31.285Z,36.37
2022-11-26T09:19:01.144Z,41.17
2022-11-26T09:21:28.065Z,40.58
2022-11-26T09:23:55.380Z,40.99
2022-11-26T09:26:22.871Z,42.54
2022-11-26T09:28:49.746Z,40.91
2022-11-26T09:31:17.856Z,42.13
2022-11-26T09:33:45.225Z,40.56
2022-11-26T09:36:14.812Z,40.12
2022-11-26T09:38:42.286Z,38.77
2022-11-26T09:41:24.030Z,40.72
2022-11-26T09:44:14.276Z,42.36
2022-11-26T09:47:24.086Z,38.16
2022-11-26T09:50:19.457Z,40.80
2022-11-26T09:52:46.312Z,40.86
2022-11-26T09:55:18.633Z,39.76
2022-11-26T09:58:10.877Z,40.11
2022-11-26T10:00:46.694Z,38.75
2022-11-26T10:03:23.199Z,39.58
2022-11-26T10:05:59.073Z,37.10
2022-11-26T10:08:30.218Z,36.20
2022-11-26T10:11:08.941Z,35.48
2022-11-26T10:13:57.445Z,34.26
2022-11-26T10:16:29.679Z,35.78
2022-11-26T10:19:05.411Z,35.05
2022-11-26T10:24:29.525Z,35.91
2022-11-26T10:26:59.030Z,35.13
2022-11-26T10:29:39.405Z,35.97
2022-11-26T10:32:39.899Z,35.79
2022-11-26T10:35:07.432Z,39.09
2022-11-26T10:37:34.593Z,36.45
2022-11-26T10:40:07.515Z,37.05
2022-11-26T10:42:43.660Z,35.43
2022-11-26T10:45:21.003Z,35.34
2022-11-26T10:47:48.051Z,39.04
2022-11-26T10:50:46.519Z,37.78
2022-11-26T10:53:07.077Z,37.15
2022-11-26T10:55:43.682Z,35.62
2022-11-26T10:58:24.273Z,34.72
2022-11-26T11:00:51.269Z,35.33
2022-11-26T11:03:33.152Z,36.54
2022-11-26T11:06:21.394Z,36.62
2022-11-26T11:08:50.378Z,38.25
2022-11-26T11:11:28.711Z,35.88
2022-11-26T11:13:56.869Z,37.87
2022-11-26T11:16:29.831Z,36.50
2022-11-26T11:18:59.767Z,37.54
2022-11-26T11:21:34.498Z,36.59
2022-11-26T11:24:16.650Z,38.19
2022-11-26T11:26:46.422Z,36.11
2022-11-26T11:29:37.631Z,37.72
2022-11-26T11:32:37.638Z,40.81
2022-11-26T11:35:26.019Z,39.62
2022-11-26T11:37:54.959Z,37.87
2022-11-26T11:40:29.140Z,38.11
2022-11-26T11:43:05.212Z,38.66
2022-11-26T11:45:41.896Z,35.42
2022-11-26T11:48:29.851Z,35.49
2022-11-26T11:51:11.959Z,37.17
2022-11-26T11:54:29.546Z,37.40
2022-11-26T11:57:19.466Z,36.59
2022-11-26T12:00:13.612Z,37.29
2022-11-26T12:02:55.593Z,37.70
2022-11-26T12:06:03.079Z,35.42
2022-11-26T12:09:04.205Z,34.06
2022-11-26T12:11:55.848Z,35.93
2022-11-26T12:14:38.633Z,36.47
2022-11-26T12:17:16.438Z,35.49
2022-11-26T12:19:49.349Z,35.51
2022-11-26T12:22:24.636Z,34.04
2022-11-26T12:25:01.730Z,34.61
2022-11-26T12:28:01.790Z,36.43
2022-11-26T12:30:40.739Z,35.61
2022-11-26T12:33:17.075Z,33.91
2022-11-26T12:35:53.899Z,33.45
2022-11-26T12:38:37.036Z,32.55
2022-11-26T12:41:10.971Z,31.36
2022-11-26T12:43:52.919Z,29.62
2022-11-26T12:46:28.770Z,30.68
2022-11-26T12:49:22.883Z,31.35
2022-11-26T12:51:56.561Z,31.38
2022-11-26T12:54:38.654Z,31.22
2022-11-26T12:57:26.924Z,31.28
2022-11-26T12:59:56.650Z,33.11
2022-11-26T13:02:39.533Z,35.44
2022-11-26T13:05:07.133Z,37.25
2022-11-26T13:08:19.264Z,36.95
2022-11-26T13:11:10.057Z,35.59
2022-11-26T13:13:55.529Z,36.82
2022-11-26T13:16:38.036Z,35.59
2022-11-26T13:19:27.517Z,35.55
2022-11-26T13:22:18.796Z,34.29
2022-11-26T13:25:19.189Z,33.93
2022-11-26T13:27:58.216Z,34.42
2022-11-26T13:30:48.626Z,34.32
2022-11-26T13:33:41.919Z,37.58
2022-11-26T13:36:46.804Z,42.05
2022-11-26T13:39:38.576Z,43.63
2022-11-26T13:42:26.999Z,44.53
2022-11-26T13:44:56.564Z,43.56
2022-11-26T13:47:42.136Z,42.05
2022-11-26T13:50:23.288Z,41.49
2022-11-26T13:52:56.525Z,40.30
2022-11-26T13:55:52.731Z,40.03
2022-11-26T13:58:29.200Z,38.89
2022-11-26T14:00:56.418Z,39.41
2022-11-26T14:03:44.233Z,40.35
2022-11-26T14:06:11.804Z,40.55
2022-11-26T14:08:43.317Z,40.85
2022-11-26T14:11:11.650Z,41.73
2022-11-26T14:13:38.920Z,43.05
2022-11-26T14:16:07.942Z,44.04
2022-11-26T14:18:52.896Z,45.54
2022-11-26T14:21:21.108Z,46.11
2022-11-26T14:23:51.748Z,45.53
2022-11-26T14:26:25.643Z,46.78
2022-11-26T14:29:14.252Z,47.73
2022-11-26T14:31:51.748Z,48.24
2022-11-26T14:34:38.916Z,49.42
2022-11-26T14:37:14.544Z,49.93
2022-11-26T14:39:41.451Z,50.84
2022-11-26T14:42:15.575Z,50.83
2022-11-26T14:44:42.836Z,51.22
2022-11-26T14:47:20.962Z,52.39
2022-11-26T14:49:54.465Z,51.84
2022-11-26T14:52:29.096Z,51.63
2022-11-26T14:55:01.179Z,52.37
2022-11-26T14:57:49.487Z,51.82
2022-11-26T15:00:16.445Z,52.16
2022-11-26T15:02:48.459Z,51.40
2022-11-26T15:05:17.303Z,51.81
2022-11-26T15:07:45.268Z,51.43
2022-11-26T15:10:15.271Z,51.46
2022-11-26T15:12:47.611Z,51.57
2022-11-26T15:15:18.407Z,51.66
2022-11-26T15:17:52.550Z,51.45
2022-11-26T15:20:20.542Z,52.85
2022-11-26T15:23:00.205Z,52.96
2022-11-26T15:25:29.199Z,53.27
2022-11-26T15:28:01.492Z,52.41
2022-11-26T15:30:30.029Z,52.07
2022-11-26T15:33:08.840Z,53.29
2022-11-26T15:35:36.595Z,52.65
2022-11-26T15:38:13.628Z,53.40
2022-11-26T15:40:54.077Z,53.62
2022-11-26T15:43:30.230Z,54.08
2022-11-26T15:46:21.596Z,54.30
2022-11-26T15:49:01.218Z,54.18
2022-11-26T15:51:35.858Z,54.01
2022-11-26T15:54:20.411Z,54.61
2022-11-26T15:56:52.747Z,54.64
2022-11-26T15:59:20.844Z,55.25
2022-11-26T16:01:48.197Z,55.88
2022-11-26T16:04:33.211Z,56.75
2022-11-26T16:07:20.002Z,56.06
2022-11-26T16:09:48.449Z,56.76
2022-11-26T16:13:04.735Z,57.03
2022-11-26T16:15:31.932Z,57.39
2022-11-26T16:17:59.006Z,57.85
2022-11-26T16:20:28.355Z,57.79
2022-11-26T16:22:58.770Z,58.13
2022-11-26T16:25:31.769Z,58.44
2022-11-26T16:28:14.813Z,57.92
2022-11-26T16:30:44.256Z,57.84
2022-11-26T16:33:11.390Z,57.97
2022-11-26T16:35:47.096Z,58.95
2022-11-26T16:38:26.000Z,57.63
2022-11-26T16:40:53.101Z,59.62
2022-11-26T16:43:20.543Z,59.36
2022-11-26T16:45:49.652Z,59.92
2022-11-26T16:48:26.678Z,60.98
2022-11-26T16:50:57.035Z,61.65
2022-11-26T16:53:23.963Z,62.33
2022-11-26T16:55:53.671Z,61.84
2022-11-26T16:58:29.301Z,61.67
2022-11-26T17:00:57.236Z,61.74
2022-11-26T17:03:27.498Z,60.66
2022-11-26T17:05:58.558Z,62.08
2022-11-26T17:08:25.553Z,63.11
2022-11-26T17:10:52.510Z,63.60
2022-11-26T17:13:20.732Z,63.06
2022-11-26T17:15:49.410Z,63.96
2022-11-26T17:18:25.967Z,64.82
2022-11-26T17:20:54.022Z,63.99
2022-11-26T17:23:21.390Z,64.52
2022-11-26T17:25:54.341Z,64.91
2022-11-26T17:28:23.341Z,65.63
2022-11-26T17:30:51.063Z,65.29
2022-11-26T17:33:19.159Z,62.73
2022-11-26T17:35:46.832Z,62.99
2022-11-26T17:38:20.055Z,64.00
2022-11-26T17:40:48.056Z,63.60
2022-11-26T17:43:15.155Z,65.05
2022-11-26T17:45:42.220Z,65.27
2022-11-26T17:48:14.242Z,65.77
2022-11-26T17:50:41.549Z,66.66
2022-11-26T17:53:08.591Z,67.14
2022-11-26T17:55:35.845Z,67.29
2022-11-26T17:58:02.749Z,67.27
2022-11-26T18:00:30.290Z,67.85
2022-11-26T18:02:57.442Z,68.33
2022-11-26T18:05:24.676Z,68.80
2022-11-26T18:07:51.988Z,69.05
2022-11-26T18:10:20.734Z,69.17
2022-11-26T18:12:48.192Z,70.12
2022-11-26T18:15:20.668Z,69.50
2022-11-26T18:17:51.139Z,70.44
2022-11-26T18:20:21.537Z,69.72
2022-11-26T18:22:59.769Z,69.54
2022-11-26T18:25:27.969Z,69.47
2022-11-26T18:27:55.078Z,69.58
2022-11-26T18:30:22.607Z,69.02
2022-11-26T18:32:49.659Z,68.33
2022-11-26T18:35:17.301Z,69.50
2022-11-26T18:37:44.729Z,68.60
2022-11-26T18:40:15.163Z,67.96
2022-11-26T18:42:42.071Z,67.58
2022-11-26T18:45:11.851Z,67.71
2022-11-26T18:47:39.200Z,67.56
2022-11-26T18:50:07.850Z,68.32
2022-11-26T18:52:35.140Z,67.26
2022-11-26T18:55:04.906Z,67.73
2022-11-26T18:57:32.440Z,67.35
2022-11-26T18:59:59.327Z,66.26
2022-11-26T19:02:26.346Z,65.35
2022-11-26T19:04:53.439Z,65.82
2022-11-26T19:07:20.372Z,65.48
2022-11-26T19:09:48.582Z,66.79
2022-11-26T19:12:15.492Z,67.19
2022-11-26T19:14:42.424Z,68.50
2022-11-26T19:17:09.547Z,69.12
2022-11-26T19:19:38.452Z,68.56
2022-11-26T19:22:05.565Z,68.47
2022-11-26T19:24:32.458Z,67.74
2022-11-26T19:26:59.485Z,67.29
2022-11-26T19:29:26.328Z,66.45
2022-11-26T19:31:53.615Z,66.70
2022-11-26T19:34:20.648Z,66.73
2022-11-26T19:36:48.647Z,66.36
2022-11-26T19:39:16.892Z,68.06
2022-11-26T19:41:44.314Z,68.83
2022-11-26T19:44:11.658Z,69.63
2022-11-26T19:46:41.484Z,69.32
2022-11-26T19:49:12.571Z,67.85
2022-11-26T19:51:40.508Z,67.68
2022-11-26T19:54:07.536Z,66.91
2022-11-26T19:56:35.400Z,67.55
2022-11-26T19:59:02.529Z,69.08
2022-11-26T20:01:31.852Z,70.33
2022-11-26T20:04:01.274Z,69.43
2022-11-26T20:06:29.809Z,69.04
2022-11-26T20:08:58.443Z,69.31
2022-11-26T20:11:26.754Z,68.07
2022-11-26T20:13:54.542Z,68.16
2022-11-26T20:16:25.183Z,68.89
2022-11-26T20:18:52.266Z,69.90
2022-11-26T20:21:22.215Z,69.90
2022-11-26T20:23:50.358Z,68.97
2022-11-26T20:26:23.177Z,69.98
2022-11-26T20:28:50.253Z,68.39
2022-11-26T20:31:23.060Z,68.89
2022-11-26T20:33:54.124Z,69.71
2022-11-26T20:36:23.191Z,71.00
2022-11-26T20:38:54.989Z,71.48
2022-11-26T20:41:23.324Z,69.95
2022-11-26T20:43:56.528Z,70.16
2022-11-26T20:46:26.194Z,69.78
2022-11-26T20:48:53.202Z,68.64
2022-11-26T20:51:22.151Z,68.12
2022-11-26T20:53:50.794Z,68.18
2022-11-26T20:56:22.429Z,69.35
2022-11-26T20:58:51.049Z,69.12
2022-11-26T21:01:23.891Z,68.48
2022-11-26T21:03:52.266Z,68.92
2022-11-26T21:06:25.942Z,67.92
2022-11-26T21:09:01.127Z,68.72
2022-11-26T21:11:29.240Z,68.31
2022-11-26T21:13:58.600Z,68.40
2022-11-26T21:16:26.289Z,68.04
2022-11-26T21:18:56.845Z,67.15
2022-11-26T21:21:25.452Z,68.01
2022-11-26T21:23:53.226Z,67.32
2022-11-26T21:26:22.982Z,68.41
2022-11-26T21:28:55.409Z,67.95
2022-11-26T21:31:23.337Z,67.59
2022-11-26T21:33:58.022Z,66.18
2022-11-26T21:36:25.460Z,65.96
2022-11-26T21:38:52.600Z,65.92
2022-11-26T21:41:20.246Z,65.15
2022-11-26T21:43:48.236Z,64.30
2022-11-26T21:46:21.171Z,64.45
2022-11-26T21:48:48.419Z,64.91
2022-11-26T21:51:19.638Z,64.80
2022-11-26T21:53:48.314Z,65.64
2022-11-26T21:56:17.886Z,65.02
2022-11-26T21:58:45.124Z,66.23
2022-11-26T22:01:16.976Z,65.47
2022-11-26T22:03:46.168Z,64.27
2022-11-26T22:06:14.070Z,64.17
2022-11-26T22:08:41.556Z,65.14
2022-11-26T22:11:14.040Z,64.37
2022-11-26T22:13:41.452Z,64.55
2022-11-26T22:16:10.528Z,64.42
2022-11-26T22:18:42.132Z,65.71
2022-11-26T22:21:21.371Z,65.55
2022-11-26T22:23:49.004Z,65.43
2022-11-26T22:26:15.847Z,65.44
2022-11-26T22:28:42.981Z,66.04
2022-11-26T22:31:12.161Z,67.23
2022-11-26T22:33:39.737Z,66.35
2022-11-26T22:36:06.830Z,65.56
2022-11-26T22:38:34.191Z,65.91
2022-11-26T22:41:03.145Z,66.84
2022-11-26T22:43:31.200Z,67.16
2022-11-26T22:45:58.883Z,66.56
2022-11-26T22:48:25.937Z,66.90
2022-11-26T22:50:54.526Z,67.04
2022-11-26T22:53:22.639Z,66.74
2022-11-26T22:55:57.301Z,66.12
2022-11-26T22:58:25.697Z,65.91
2022-11-26T23:00:59.201Z,65.65
2022-11-26T23:03:27.864Z,65.60
2022-11-26T23:05:55.461Z,65.88
2022-11-26T23:08:22.981Z,66.55
2022-11-26T23:10:50.041Z,67.25
2022-11-26T23:13:17.641Z,66.81
2022-11-26T23:15:45.994Z,66.35
2022-11-26T23:18:15.254Z,65.89
2022-11-26T23:20:43.020Z,66.88
2022-11-26T23:23:10.606Z,66.58
2022-11-26T23:25:39.307Z,67.53
2022-11-26T23:28:06.864Z,66.40
2022-11-26T23:30:35.098Z,66.48
2022-11-26T23:33:02.023Z,66.66
2022-11-26T23:35:29.198Z,66.65
2022-11-26T23:37:56.252Z,67.00
2022-11-26T23:40:23.217Z,66.99
2022-11-26T23:42:50.125Z,66.26
2022-11-26T23:45:17.184Z,66.16
2022-11-26T23:47:44.106Z,66.29
2022-11-26T23:50:12.494Z,66.16
2022-11-26T23:52:39.375Z,67.06
2022-11-26T23:55:06.718Z,67.61
2022-11-26T23:57:33.612Z,66.02
